Time;durP1;ratioP1;P1;durP2;ratioP2;P2;SDS_P1;SDS_P2;PMS_P1;PMS_P2;Temp;Humidity;BMP_temperature;BMP_pressure;BME280_temperature;BME280_humidity;BME280_pressure;Samples;Min_cycle;Max_cycle;Signal;HPM_P1;HPM_P2
2023/11/28 00:03:39;;;;;;;2.45;0.60;;;;;;;10.38;97.78;101656.09;10566262;27;20047;-81
2023/11/28 00:09:02;;;;;;;2.25;0.90;;;;;;;10.42;96.83;101658.00;10572513;28;20055;-80
2023/11/28 00:14:25;;;;;;;1.13;0.60;;;;;;;10.30;97.75;101657.63;10564560;28;20050;-81
2023/11/28 00:19:49;;;;;;;0.60;0.57;;;;;;;10.10;99.44;101651.72;10578571;28;20112;-80
2023/11/28 00:25:11;;;;;;;1.95;0.70;;;;;;;10.28;99.13;101646.13;10564482;28;20044;-81
2023/11/28 00:30:33;;;;;;;1.98;0.73;;;;;;;10.38;97.82;101629.72;10576801;28;20051;-81
2023/11/28 00:35:58;;;;;;;0.77;0.50;;;;;;;10.36;96.83;101637.63;10578424;27;20055;-81
2023/11/28 00:41:20;;;;;;;1.85;0.70;;;;;;;10.29;97.22;101617.16;10561599;28;20062;-81
2023/11/28 00:46:45;;;;;;;1.25;0.60;;;;;;;10.16;98.24;101614.97;10586767;27;20053;-80
2023/11/28 00:52:09;;;;;;;1.20;0.50;;;;;;;10.13;99.56;101612.22;10572288;27;20103;-80
2023/11/28 00:57:31;;;;;;;1.13;0.50;;;;;;;10.14;100.00;101594.66;10578109;27;20047;-81
2023/11/28 01:02:54;;;;;;;1.48;0.60;;;;;;;10.24;100.00;101578.28;10569104;27;20058;-81
2023/11/28 01:08:17;;;;;;;0.85;0.57;;;;;;;10.55;98.96;101572.16;10576671;27;20062;-80
2023/11/28 01:13:40;;;;;;;2.55;0.50;;;;;;;11.02;94.83;101574.38;10585259;27;20057;-81
2023/11/28 01:19:03;;;;;;;1.00;0.60;;;;;;;11.29;92.10;101566.25;10570116;27;20807;-80
2023/11/28 01:24:27;;;;;;;1.05;0.70;;;;;;;11.30;92.69;101559.22;10587477;27;20096;-81
2023/11/28 01:29:49;;;;;;;1.75;0.50;;;;;;;11.38;93.03;101566.50;10583340;27;20480;-81
2023/11/28 01:35:12;;;;;;;0.98;0.70;;;;;;;11.64;90.51;101560.94;10588382;27;20047;-81
2023/11/28 01:40:35;;;;;;;0.65;0.60;;;;;;;11.69;89.66;101556.66;10597771;27;20059;-81
2023/11/28 01:45:59;;;;;;;1.00;0.50;;;;;;;11.90;87.09;101552.78;10590828;27;20047;-81
2023/11/28 01:51:21;;;;;;;0.50;0.50;;;;;;;12.00;85.94;101539.78;10601789;27;20051;-81
2023/11/28 01:56:45;;;;;;;2.05;0.80;;;;;;;12.10;84.97;101540.00;10575247;27;20055;-81
2023/11/28 02:02:09;;;;;;;1.17;0.65;;;;;;;12.17;83.71;101530.44;10578978;28;20434;-80
2023/11/28 02:07:32;;;;;;;1.45;0.60;;;;;;;12.08;85.25;101519.69;10589803;28;20065;-81
2023/11/28 02:12:55;;;;;;;1.80;0.80;;;;;;;12.09;85.56;101516.16;10595873;28;20046;-81
2023/11/28 02:18:18;;;;;;;0.98;0.70;;;;;;;11.98;87.01;101511.53;10583511;28;20047;-80
2023/11/28 02:23:41;;;;;;;0.95;0.80;;;;;;;11.89;88.82;101503.38;10576878;28;20039;-80
2023/11/28 02:29:05;;;;;;;1.45;0.70;;;;;;;11.83;89.92;101500.59;10588361;28;20051;-80
2023/11/28 02:34:27;;;;;;;2.50;0.70;;;;;;;11.91;90.59;101490.19;10567487;28;20551;-80
2023/11/28 02:39:49;;;;;;;2.03;0.80;;;;;;;11.96;90.66;101476.19;10585158;28;20039;-81
2023/11/28 02:45:14;;;;;;;3.38;0.77;;;;;;;11.95;92.36;101471.75;10581042;28;20059;-82
2023/11/28 02:50:37;;;;;;;4.43;0.80;;;;;;;12.04;92.44;101462.22;10601025;28;20057;-81
2023/11/28 02:55:59;;;;;;;0.98;0.68;;;;;;;12.00;94.32;101463.03;10580113;28;20042;-81
2023/11/28 03:01:23;;;;;;;3.30;0.82;;;;;;;12.08;95.29;101453.53;10589208;27;20058;-82
2023/11/28 03:06:46;;;;;;;1.60;0.80;;;;;;;12.18;95.04;101444.88;10594122;27;20051;-81
2023/11/28 03:12:09;;;;;;;2.97;0.88;;;;;;;12.35;95.41;101451.38;10581930;27;20484;-81
2023/11/28 03:17:36;;;;;;;1.45;0.63;;;;;;;12.38;96.39;101435.59;10599226;27;20051;-81
2023/11/28 03:22:59;;;;;;;2.05;0.60;;;;;;;12.53;96.10;101422.63;10593565;27;20077;-81
2023/11/28 03:28:22;;;;;;;1.45;0.70;;;;;;;12.55;97.97;101420.00;10604943;27;20059;-82
2023/11/28 03:33:46;;;;;;;2.58;0.70;;;;;;;12.97;96.07;101414.53;10604852;27;20389;-81
2023/11/28 03:39:10;;;;;;;4.53;0.80;;;;;;;13.04;95.96;101400.53;10596841;27;20054;-80
2023/11/28 03:44:33;;;;;;;2.22;0.77;;;;;;;13.04;96.65;101409.38;10603603;27;20059;-81
2023/11/28 03:49:57;;;;;;;3.05;0.80;;;;;;;13.15;96.74;101405.16;10587684;27;20073;-81
2023/11/28 03:55:20;;;;;;;0.98;0.70;;;;;;;13.34;95.63;101410.72;10582557;27;20050;-81
2023/11/28 04:00:42;;;;;;;1.20;0.68;;;;;;;13.30;96.54;101420.41;10590843;27;20412;-80
2023/11/28 04:06:08;;;;;;;2.72;0.73;;;;;;;13.21;98.27;101424.66;10567824;27;20396;-81
2023/11/28 04:11:31;;;;;;;1.50;0.70;;;;;;;13.22;98.82;101429.09;10583291;27;20636;-81
2023/11/28 04:16:53;;;;;;;2.53;0.50;;;;;;;13.30;98.32;101423.06;10564670;28;20052;-81
2023/11/28 04:22:17;;;;;;;1.67;0.70;;;;;;;13.23;100.00;101422.94;10570674;27;20045;-81
2023/11/28 04:27:42;;;;;;;1.48;0.90;;;;;;;13.20;100.00;101421.13;10582219;27;20054;-81
2023/11/28 04:33:05;;;;;;;2.28;0.90;;;;;;;13.28;100.00;101434.50;10581869;27;20454;-81
2023/11/28 04:38:29;;;;;;;2.88;0.70;;;;;;;13.39;99.53;101411.72;10582024;27;20261;-81
2023/11/28 04:43:52;;;;;;;0.63;0.60;;;;;;;13.36;99.88;101415.19;10561805;27;20488;-81
2023/11/28 04:49:15;;;;;;;1.88;0.60;;;;;;;13.27;100.00;101407.09;10583020;27;20051;-81
2023/11/28 04:54:39;;;;;;;2.97;0.70;;;;;;;13.34;100.00;101395.72;10594798;27;20100;-81
2023/11/28 05:00:01;;;;;;;1.30;0.70;;;;;;;13.43;100.00;101400.25;10578857;27;20047;-81
2023/11/28 05:05:23;;;;;;;1.40;0.93;;;;;;;13.46;100.00;101390.56;10582586;27;20415;-80
2023/11/28 05:10:48;;;;;;;0.70;0.70;;;;;;;13.35;100.00;101394.84;10598618;27;20055;-81
2023/11/28 05:16:10;;;;;;;1.48;0.90;;;;;;;13.41;100.00;101389.63;10589057;27;20086;-81
2023/11/28 05:21:33;;;;;;;2.03;0.90;;;;;;;13.42;100.00;101377.25;10576922;27;20074;-81
2023/11/28 05:26:57;;;;;;;4.13;2.00;;;;;;;13.65;100.00;101391.75;10550817;27;20047;-80
2023/11/28 05:32:20;;;;;;;2.40;2.13;;;;;;;13.74;100.00;101394.50;10577281;27;20374;-81
2023/11/28 05:37:42;;;;;;;3.47;2.10;;;;;;;13.93;100.00;101392.97;10601140;27;20392;-80
2023/11/28 05:43:07;;;;;;;2.15;1.20;;;;;;;14.08;100.00;101401.09;10587962;27;20457;-81
2023/11/28 05:48:29;;;;;;;1.98;1.05;;;;;;;14.21;100.00;101380.88;10600197;27;20408;-81
2023/11/28 05:53:53;;;;;;;2.70;0.90;;;;;;;14.38;100.00;101381.97;10572291;27;20047;-80
2023/11/28 05:59:17;;;;;;;2.55;0.90;;;;;;;15.28;100.00;101393.38;10574332;27;20385;-82
2023/11/28 06:04:40;;;;;;;3.13;0.90;;;;;;;18.00;79.21;101410.63;10594037;28;20435;-81
2023/11/28 06:10:04;;;;;;;1.92;0.98;;;;;;;19.02;66.58;101407.34;10575505;28;20387;-81
2023/11/28 06:15:28;;;;;;;2.05;1.27;;;;;;;19.95;59.94;101392.97;10600446;28;20488;-82
2023/11/28 06:20:50;;;;;;;4.28;1.23;;;;;;;20.23;57.24;101416.72;10590508;28;20124;-82
2023/11/28 06:26:13;;;;;;;7.10;0.90;;;;;;;20.68;55.12;101396.41;10581407;27;20117;-81
2023/11/28 06:31:37;;;;;;;3.97;0.90;;;;;;;21.12;52.26;101388.53;10596169;28;20097;-81
2023/11/28 06:36:59;;;;;;;1.63;0.93;;;;;;;20.11;54.98;101383.81;10598368;27;20178;-82
2023/11/28 06:42:25;;;;;;;2.45;1.13;;;;;;;20.39;55.38;101385.25;10561082;27;20052;-81
2023/11/28 06:47:49;;;;;;;2.17;0.90;;;;;;;20.51;56.20;101368.06;10589775;27;20039;-82
2023/11/28 06:53:12;;;;;;;1.00;0.77;;;;;;;20.52;55.33;101359.13;10606903;27;20054;-81
2023/11/28 06:58:35;;;;;;;3.17;0.80;;;;;;;21.37;51.66;101354.97;10588521;27;20047;-81
2023/11/28 07:04:02;;;;;;;2.13;1.00;;;;;;;21.99;49.05;101348.31;10594569;27;20099;-81
2023/11/28 07:09:25;;;;;;;1.52;1.05;;;;;;;22.11;48.58;101337.31;10608911;27;20054;-81
2023/11/28 07:14:49;;;;;;;2.28;0.90;;;;;;;22.34;48.10;101325.09;10561934;27;20039;-81
2023/11/28 07:20:14;;;;;;;2.05;1.00;;;;;;;23.19;45.94;101329.22;10596948;27;20075;-81
2023/11/28 07:25:37;;;;;;;2.17;1.80;;;;;;;23.23;46.13;101316.56;10588020;27;20518;-81
2023/11/28 07:30:59;;;;;;;6.07;5.30;;;;;;;24.03;44.40;101311.47;10574484;27;20042;-80
2023/11/28 07:36:24;;;;;;;3.72;3.17;;;;;;;24.41;42.43;101296.81;10570892;27;20050;-81
2023/11/28 07:41:46;;;;;;;7.22;6.45;;;;;;;23.91;43.26;101281.31;10603169;27;20051;-82
2023/11/28 07:47:12;;;;;;;5.28;2.55;;;;;;;24.01;42.42;101275.59;10577654;27;20126;-81
2023/11/28 07:52:37;;;;;;;4.70;2.80;;;;;;;24.10;41.92;101263.59;10566353;27;20054;-82
2023/11/28 07:57:59;;;;;;;2.33;1.77;;;;;;;24.35;40.47;101263.75;10587284;27;20584;-81
2023/11/28 08:03:22;;;;;;;8.27;7.38;;;;;;;25.20;38.93;101267.06;10584112;27;20497;-82
2023/11/28 08:08:47;;;;;;;9.27;7.82;;;;;;;25.64;38.09;101245.59;10581248;27;20062;-82
2023/11/28 08:14:11;;;;;;;5.50;5.00;;;;;;;25.48;38.02;101266.88;10568064;28;20047;-82
2023/11/28 08:19:34;;;;;;;4.82;4.38;;;;;;;25.23;37.52;101245.31;10551048;28;20052;-83
2023/11/28 08:25:00;;;;;;;2.92;2.15;;;;;;;24.57;38.99;101249.44;10600382;27;20070;-82
2023/11/28 08:30:24;;;;;;;13.43;11.02;;;;;;;25.17;38.86;101250.94;10576725;28;20427;-82
2023/11/28 08:35:48;;;;;;;7.55;6.85;;;;;;;25.15;38.63;101262.72;10549768;28;20044;-82
2023/11/28 08:41:13;;;;;;;8.15;6.60;;;;;;;24.67;39.03;101252.72;10568094;27;20043;-81
2023/11/28 08:46:37;;;;;;;2.55;1.48;;;;;;;24.61;39.20;101243.00;10605850;27;20143;-82
2023/11/28 08:52:00;;;;;;;2.53;1.50;;;;;;;24.85;39.07;101232.28;10605656;27;20047;-81
2023/11/28 08:57:26;;;;;;;5.22;2.45;;;;;;;25.27;38.19;101210.94;10587068;27;20043;-82
2023/11/28 09:02:51;;;;;;;3.28;1.67;;;;;;;25.00;38.36;101202.06;10548443;28;20085;-81
2023/11/28 09:08:14;;;;;;;4.93;3.08;;;;;;;24.86;38.46;101210.63;10563157;27;20048;-81
2023/11/28 09:13:38;;;;;;;3.25;2.28;;;;;;;24.66;38.70;101204.16;10548592;28;20440;-81
2023/11/28 09:19:02;;;;;;;1.08;0.70;;;;;;;24.95;38.37;101191.41;10578761;27;20408;-81
2023/11/28 09:24:25;;;;;;;1.60;1.20;;;;;;;24.97;38.59;101177.84;10584599;27;20046;-82
2023/11/28 09:29:49;;;;;;;1.58;0.80;;;;;;;25.05;37.83;101162.22;10591008;27;20047;-81
2023/11/28 09:35:12;;;;;;;4.78;0.95;;;;;;;25.35;37.47;101144.81;10577742;27;20043;-81
2023/11/28 09:40:35;;;;;;;2.03;0.77;;;;;;;24.80;38.44;101135.22;10560988;28;20047;-82
2023/11/28 09:46:03;;;;;;;1.85;0.82;;;;;;;24.04;39.65;101151.38;10546930;28;20058;-80
2023/11/28 09:51:27;;;;;;;;;;;;;;;24.12;39.68;101149.31;10576535;27;20051;-82
2023/11/28 09:56:54;;;;;;;2.78;2.05;;;;;;;23.12;42.32;101165.97;10582713;27;19941;-82
2023/11/28 10:02:19;;;;;;;1.35;0.90;;;;;;;23.29;45.26;101142.13;10602828;28;20059;-81
2023/11/28 10:07:45;;;;;;;5.05;1.20;;;;;;;23.39;44.59;101111.25;10602301;28;20388;-80
2023/11/28 10:13:08;;;;;;;4.93;2.47;;;;;;;23.12;47.35;101135.47;10611678;27;20055;-80
2023/11/28 10:18:32;;;;;;;5.88;1.80;;;;;;;23.21;50.48;101108.25;10561679;27;20425;-80
2023/11/28 10:23:55;;;;;;;1.70;0.85;;;;;;;23.74;50.12;101098.47;10568562;28;20558;-80
2023/11/28 10:29:19;;;;;;;2.45;1.20;;;;;;;23.51;50.65;101083.03;10572442;27;20381;-81
2023/11/28 10:34:56;;;;;;;5.95;4.20;;;;;;;22.46;74.19;101083.50;10580993;27;20084;-78
2023/11/28 10:40:22;;;;;;;2.00;1.08;;;;;;;21.75;91.06;101091.66;10605601;27;20151;-81
2023/11/28 10:45:45;;;;;;;3.50;1.17;;;;;;;20.02;100.00;101083.75;10587931;27;20035;-79
2023/11/28 10:51:13;;;;;;;6.30;4.30;;;;;;;19.15;100.00;101081.56;10596431;27;20616;-80
2023/11/28 10:56:46;;;;;;;2.03;1.08;;;;;;;19.65;100.00;101070.97;10610495;27;20263;-84
2023/11/28 11:02:11;;;;;;;9.18;6.97;;;;;;;19.25;100.00;101092.09;10559865;27;20043;-84
2023/11/28 11:07:36;;;;;;;4.25;2.85;;;;;;;18.58;100.00;101086.75;10577834;27;20130;-83
2023/11/28 11:13:04;;;;;;;2.55;1.40;;;;;;;18.12;100.00;101086.34;10602491;27;20039;-82
2023/11/28 11:18:34;;;;;;;6.35;1.05;;;;;;;19.39;100.00;101059.75;10562621;27;20096;-78
2023/11/28 11:24:00;;;;;;;5.10;1.23;;;;;;;20.16;100.00;101053.06;10583132;27;20051;-79
2023/11/28 11:29:37;;;;;;;3.00;1.00;;;;;;;20.12;100.00;101069.25;10601428;27;20039;-79
2023/11/28 11:35:02;;;;;;;4.65;1.30;;;;;;;19.04;100.00;101052.25;10606604;27;20049;-80
2023/11/28 11:40:27;;;;;;;3.92;1.88;;;;;;;18.89;100.00;101061.41;10582259;27;20065;-82
2023/11/28 11:45:50;;;;;;;4.10;1.70;;;;;;;19.13;100.00;101054.81;10600686;27;20043;-79
2023/11/28 11:51:12;;;;;;;4.13;2.55;;;;;;;18.52;100.00;101015.47;10592150;27;20075;-80
2023/11/28 11:56:37;;;;;;;5.85;1.75;;;;;;;18.12;100.00;101063.19;10563126;28;20052;-77
2023/11/28 12:02:01;;;;;;;4.97;1.80;;;;;;;18.64;100.00;101047.44;10591821;27;20043;-81
2023/11/28 12:07:24;;;;;;;4.28;2.33;;;;;;;19.06;100.00;101012.97;10605640;27;20135;-82
2023/11/28 12:12:48;;;;;;;3.25;1.20;;;;;;;19.36;100.00;101017.00;10600266;27;20058;-78
2023/11/28 12:18:10;;;;;;;4.13;1.15;;;;;;;19.40;100.00;100986.56;10591170;27;20096;-78
2023/11/28 12:23:33;;;;;;;2.17;1.40;;;;;;;19.53;100.00;100965.84;10597272;27;20059;-77
2023/11/28 12:28:58;;;;;;;4.38;1.75;;;;;;;19.66;100.00;100968.28;10564474;27;20134;-77
2023/11/28 12:34:22;;;;;;;3.75;1.10;;;;;;;19.90;100.00;100934.75;10597744;27;20556;-77
2023/11/28 12:39:45;;;;;;;3.50;1.52;;;;;;;19.83;100.00;100955.44;10581029;27;20399;-77
2023/11/28 12:45:09;;;;;;;3.50;1.10;;;;;;;19.67;100.00;100913.78;10598586;27;20055;-78
2023/11/28 12:50:33;;;;;;;7.63;1.67;;;;;;;19.77;100.00;100934.13;10594241;27;20043;-78
2023/11/28 12:55:58;;;;;;;5.88;1.20;;;;;;;19.56;100.00;100926.47;10594096;27;20043;-79
2023/11/28 13:01:22;;;;;;;5.90;1.48;;;;;;;19.01;100.00;100924.75;10601732;27;20095;-77
2023/11/28 13:06:45;;;;;;;5.57;1.42;;;;;;;19.08;100.00;100931.78;10561865;27;20068;-79
2023/11/28 13:12:09;;;;;;;5.03;1.25;;;;;;;19.45;100.00;100945.41;10571580;27;20724;-79
2023/11/28 13:17:33;;;;;;;3.25;1.33;;;;;;;19.79;100.00;100936.78;10586978;27;20540;-77
2023/11/28 13:22:55;;;;;;;9.13;1.50;;;;;;;20.11;100.00;100944.16;10599014;27;20111;-77
2023/11/28 13:28:18;;;;;;;10.25;2.08;;;;;;;20.13;100.00;100920.91;10596643;27;20051;-76
2023/11/28 13:33:45;;;;;;;7.05;1.60;;;;;;;20.15;100.00;100917.25;10555518;27;20040;-77
2023/11/28 13:39:08;;;;;;;8.38;1.58;;;;;;;20.07;100.00;100932.63;10593176;27;20051;-75
2023/11/28 13:44:31;;;;;;;7.40;1.63;;;;;;;19.93;100.00;100934.72;10582508;27;20054;-75
2023/11/28 13:49:56;;;;;;;6.85;1.55;;;;;;;19.80;100.00;100951.94;10581885;27;20061;-76
2023/11/28 13:55:19;;;;;;;5.30;1.30;;;;;;;19.54;100.00;100933.69;10600375;27;20134;-76
2023/11/28 14:00:41;;;;;;;6.38;1.30;;;;;;;19.41;100.00;100914.25;10576075;28;20082;-74
2023/11/28 14:06:06;;;;;;;5.68;1.35;;;;;;;19.36;100.00;100928.63;10592076;28;20045;-77
2023/11/28 14:11:28;;;;;;;5.93;1.38;;;;;;;19.30;100.00;100931.38;10575045;28;20136;-78
2023/11/28 14:16:50;;;;;;;6.10;1.45;;;;;;;19.29;100.00;100906.44;10568509;28;20047;-78
2023/11/28 14:22:14;;;;;;;5.88;1.42;;;;;;;19.21;100.00;100900.34;10558082;28;20390;-77
2023/11/28 14:27:37;;;;;;;5.63;1.45;;;;;;;19.16;100.00;100917.38;10544693;28;20075;-77
2023/11/28 14:33:00;;;;;;;7.05;1.40;;;;;;;19.03;100.00;100920.25;10556889;28;20040;-76
2023/11/28 14:38:24;;;;;;;5.53;1.63;;;;;;;19.00;100.00;100935.47;10565987;28;20130;-78
2023/11/28 14:43:47;;;;;;;5.95;1.50;;;;;;;18.86;100.00;100897.34;10599931;28;20051;-76
2023/11/28 14:49:09;;;;;;;2.92;1.20;;;;;;;18.41;100.00;100945.22;10576136;28;20051;-75
2023/11/28 14:54:33;;;;;;;6.47;1.60;;;;;;;18.04;100.00;100944.84;10589103;27;20035;-75
2023/11/28 14:59:56;;;;;;;4.28;1.33;;;;;;;17.93;100.00;100946.72;10598294;27;20113;-75
2023/11/28 15:05:18;;;;;;;5.93;1.75;;;;;;;18.08;100.00;100941.22;10598071;27;20046;-79
2023/11/28 15:10:42;;;;;;;7.47;1.95;;;;;;;18.28;100.00;100932.94;10583800;27;20043;-76
2023/11/28 15:16:05;;;;;;;7.57;1.77;;;;;;;18.52;100.00;100948.63;10584858;27;20110;-77
2023/11/28 15:21:28;;;;;;;7.20;1.50;;;;;;;18.53;100.00;100930.81;10591636;27;20123;-74
2023/11/28 15:26:52;;;;;;;6.15;1.98;;;;;;;18.55;100.00;100935.28;10605718;27;20126;-75
2023/11/28 15:32:15;;;;;;;7.68;1.27;;;;;;;18.59;100.00;100947.69;10606036;27;20039;-76
2023/11/28 15:37:37;;;;;;;7.25;1.40;;;;;;;18.57;100.00;100945.97;10556762;27;20360;-79
2023/11/28 15:43:02;;;;;;;7.18;1.58;;;;;;;18.59;100.00;100928.97;10597497;27;20104;-79
2023/11/28 15:48:24;;;;;;;4.60;1.40;;;;;;;18.38;100.00;100942.59;10574521;27;20100;-77
2023/11/28 15:53:47;;;;;;;5.53;1.38;;;;;;;18.12;100.00;100952.72;10580438;27;20038;-78
2023/11/28 15:59:11;;;;;;;5.82;1.90;;;;;;;17.65;100.00;100958.63;10601861;27;20043;-76
2023/11/28 16:04:33;;;;;;;8.95;1.70;;;;;;;17.52;100.00;100955.16;10589677;27;20050;-78
2023/11/28 16:09:57;;;;;;;10.55;1.80;;;;;;;17.56;100.00;100954.22;10598505;27;20134;-79
2023/11/28 16:15:22;;;;;;;7.22;1.50;;;;;;;17.71;100.00;100934.53;10589084;27;20096;-77
2023/11/28 16:20:45;;;;;;;6.65;1.55;;;;;;;18.06;100.00;100956.38;10576844;27;20046;-78
2023/11/28 16:26:08;;;;;;;4.97;1.25;;;;;;;18.46;100.00;100978.13;10571510;27;20230;-79
2023/11/28 16:31:32;;;;;;;3.85;1.30;;;;;;;18.75;100.00;100980.44;10587907;27;20141;-79
2023/11/28 16:36:54;;;;;;;6.00;1.10;;;;;;;18.88;100.00;101005.22;10581332;27;20327;-77
2023/11/28 16:42:17;;;;;;;9.95;4.22;;;;;;;18.91;100.00;101030.13;10593707;27;20507;-79
2023/11/28 16:47:41;;;;;;;3.33;1.40;;;;;;;19.11;100.00;101022.69;10595078;27;20103;-78
2023/11/28 16:53:04;;;;;;;4.15;1.40;;;;;;;19.23;100.00;101034.16;10598789;27;20043;-78
2023/11/28 16:58:26;;;;;;;11.60;5.55;;;;;;;19.24;100.00;101025.19;10604511;27;20097;-81
2023/11/28 17:03:50;;;;;;;5.75;2.05;;;;;;;19.23;100.00;101026.97;10580298;27;20047;-80
2023/11/28 17:09:13;;;;;;;3.03;1.25;;;;;;;19.13;100.00;101000.38;10599352;27;20126;-79
2023/11/28 17:14:35;;;;;;;6.50;1.45;;;;;;;19.16;100.00;100986.97;10597502;27;20130;-79
2023/11/28 17:20:00;;;;;;;5.40;1.15;;;;;;;19.24;100.00;100971.66;10586666;27;20130;-75
2023/11/28 17:25:24;;;;;;;7.47;1.65;;;;;;;19.28;100.00;100944.81;10584479;27;20077;-77
2023/11/28 17:30:46;;;;;;;5.63;1.60;;;;;;;19.40;100.00;100941.94;10585905;27;20088;-77
2023/11/28 17:36:11;;;;;;;7.90;1.10;;;;;;;19.45;100.00;100920.41;10586987;27;20055;-77
2023/11/28 17:41:34;;;;;;;5.20;1.30;;;;;;;19.44;100.00;100897.22;10588838;27;20096;-77
2023/11/28 17:46:57;;;;;;;9.77;1.98;;;;;;;19.29;100.00;100893.06;10596401;27;20166;-77
2023/11/28 17:52:21;;;;;;;6.82;2.08;;;;;;;19.35;100.00;100898.28;10584063;27;20051;-79
2023/11/28 17:57:43;;;;;;;6.55;1.83;;;;;;;19.36;100.00;100861.69;10599240;27;20055;-78
2023/11/28 18:03:05;;;;;;;8.18;1.23;;;;;;;19.31;100.00;100863.56;10589866;28;20074;-79
2023/11/28 18:08:30;;;;;;;7.43;1.63;;;;;;;19.38;100.00;100801.84;10583977;28;20438;-80
2023/11/28 18:13:53;;;;;;;6.38;1.52;;;;;;;19.53;99.14;100853.34;10559529;28;20484;-79
2023/11/28 18:19:15;;;;;;;4.80;1.20;;;;;;;19.41;98.88;100867.84;10600303;27;20122;-81
2023/11/28 18:24:39;;;;;;;8.88;1.85;;;;;;;19.40;100.00;100871.44;10580591;28;20046;-78
2023/11/28 18:30:01;;;;;;;9.75;1.60;;;;;;;19.45;99.62;100853.47;10550359;28;20047;-78
2023/11/28 18:35:24;;;;;;;7.97;1.65;;;;;;;19.55;99.51;100881.88;10571390;28;20067;-80
2023/11/28 18:40:48;;;;;;;7.47;1.38;;;;;;;19.61;100.00;100903.19;10597339;27;20055;-78
2023/11/28 18:46:13;;;;;;;5.47;1.70;;;;;;;19.56;100.00;100907.72;10595128;27;20054;-82
2023/11/28 18:51:37;;;;;;;6.15;1.50;;;;;;;19.59;100.00;100910.38;10604730;27;20078;-81
2023/11/28 18:57:00;;;;;;;9.27;1.20;;;;;;;19.50;100.00;100934.63;10606894;27;20077;-79
2023/11/28 19:02:23;;;;;;;10.25;2.42;;;;;;;19.56;100.00;100965.81;10571722;27;20051;-79
2023/11/28 19:07:46;;;;;;;5.40;1.98;;;;;;;19.66;100.00;100968.28;10556690;27;20079;-78
2023/11/28 19:13:10;;;;;;;5.70;2.35;;;;;;;19.79;100.00;100993.91;10599442;27;20051;-79
2023/11/28 19:18:33;;;;;;;5.40;1.88;;;;;;;19.75;99.76;100983.31;10567657;28;20515;-79
2023/11/28 19:23:55;;;;;;;5.53;1.67;;;;;;;19.56;100.00;100971.16;10572964;27;20050;-77
2023/11/28 19:29:19;;;;;;;6.55;2.03;;;;;;;19.50;100.00;100967.66;10574288;27;20492;-78
2023/11/28 19:34:42;;;;;;;4.93;1.92;;;;;;;19.50;100.00;100993.53;10565346;27;20047;-79
2023/11/28 19:40:05;;;;;;;3.53;1.75;;;;;;;19.52;100.00;100982.81;10586115;27;20496;-79
2023/11/28 19:45:29;;;;;;;7.47;1.58;;;;;;;19.60;100.00;100988.94;10579037;27;20075;-81
2023/11/28 19:50:55;;;;;;;5.97;1.42;;;;;;;19.69;100.00;100989.63;10586514;27;20499;-78
2023/11/28 19:56:17;;;;;;;5.50;1.58;;;;;;;19.57;100.00;100986.28;10592863;27;20039;-81
2023/11/28 20:01:42;;;;;;;11.23;1.38;;;;;;;19.62;100.00;100990.69;10579165;27;20054;-79
2023/11/28 20:07:05;;;;;;;10.50;1.73;;;;;;;19.73;100.00;100983.31;10562980;27;20548;-79
2023/11/28 20:12:27;;;;;;;6.18;1.50;;;;;;;19.61;100.00;100962.13;10598494;27;20825;-80
2023/11/28 20:17:51;;;;;;;8.85;2.20;;;;;;;19.62;100.00;100945.16;10605637;27;20107;-80
2023/11/28 20:23:14;;;;;;;4.07;1.27;;;;;;;19.54;100.00;100935.47;10607696;27;20485;-80
2023/11/28 20:28:36;;;;;;;7.03;1.60;;;;;;;19.46;100.00;100939.16;10604939;27;20092;-79
2023/11/28 20:34:00;;;;;;;7.78;1.73;;;;;;;19.49;100.00;100936.41;10604914;27;20412;-79
2023/11/28 20:39:22;;;;;;;4.00;1.35;;;;;;;19.55;100.00;100908.66;10559243;27;20092;-79
2023/11/28 20:44:45;;;;;;;4.40;1.63;;;;;;;19.42;100.00;100920.50;10548824;28;20156;-80
2023/11/28 20:50:10;;;;;;;8.63;1.77;;;;;;;19.42;100.00;100924.06;10587750;27;20051;-79
2023/11/28 20:55:34;;;;;;;4.05;1.30;;;;;;;19.42;100.00;100912.44;10604766;27;20050;-80
2023/11/28 21:00:57;;;;;;;6.15;1.40;;;;;;;19.46;100.00;100914.19;10576003;28;20126;-79
2023/11/28 21:06:21;;;;;;;8.77;2.28;;;;;;;19.53;100.00;100923.00;10548426;28;20044;-80
2023/11/28 21:11:43;;;;;;;6.20;1.60;;;;;;;19.41;100.00;100924.06;10562664;28;20079;-79
2023/11/28 21:17:06;;;;;;;8.00;1.67;;;;;;;19.52;100.00;100931.94;10562318;28;20524;-80
2023/11/28 21:22:30;;;;;;;5.30;1.15;;;;;;;19.46;100.00;100922.22;10576099;27;20047;-81
2023/11/28 21:27:53;;;;;;;10.38;1.55;;;;;;;19.47;100.00;100922.19;10573030;27;20047;-81
2023/11/28 21:33:15;;;;;;;5.88;1.20;;;;;;;19.25;100.00;100934.16;10578750;27;20532;-82
2023/11/28 21:38:39;;;;;;;7.68;1.50;;;;;;;19.30;100.00;100888.56;10603539;27;20119;-81
2023/11/28 21:44:02;;;;;;;7.20;1.30;;;;;;;19.43;100.00;100927.56;10580479;27;20047;-82
2023/11/28 21:49:25;;;;;;;9.70;1.80;;;;;;;19.40;100.00;100931.22;10586533;27;20039;-80
2023/11/28 21:54:49;;;;;;;6.95;1.50;;;;;;;19.46;100.00;100916.88;10600380;27;20545;-81
2023/11/28 22:00:12;;;;;;;6.93;1.23;;;;;;;19.37;100.00;100917.88;10573659;28;20071;-81
2023/11/28 22:05:35;;;;;;;16.63;2.30;;;;;;;19.32;100.00;100919.75;10586591;27;20412;-81
2023/11/28 22:10:59;;;;;;;12.70;1.63;;;;;;;19.42;100.00;100912.44;10576177;28;20554;-81
2023/11/28 22:16:21;;;;;;;12.05;1.77;;;;;;;19.58;98.96;100903.25;10560649;28;20062;-80
2023/11/28 22:21:44;;;;;;;14.18;1.75;;;;;;;19.58;100.00;100916.63;10580386;28;20131;-81
2023/11/28 22:27:09;;;;;;;10.93;1.73;;;;;;;19.54;100.00;100931.00;10577821;28;20043;-81
2023/11/28 22:32:31;;;;;;;6.00;1.35;;;;;;;19.45;100.00;100937.38;10573466;28;20496;-80
2023/11/28 22:37:56;;;;;;;12.50;1.98;;;;;;;19.62;100.00;100930.88;10565035;28;20100;-82
2023/11/28 22:43:20;;;;;;;13.68;2.42;;;;;;;19.63;100.00;100932.59;10572342;28;20044;-81
2023/11/28 22:48:43;;;;;;;8.20;1.50;;;;;;;19.67;100.00;100931.66;10578225;28;20055;-81
2023/11/28 22:54:06;;;;;;;9.40;1.50;;;;;;;19.54;100.00;100941.72;10575306;28;20051;-81
2023/11/28 22:59:30;;;;;;;13.07;1.73;;;;;;;19.49;100.00;100967.69;10578948;28;20407;-81
2023/11/28 23:04:53;;;;;;;10.50;1.70;;;;;;;19.61;99.89;100964.81;10566501;28;20055;-80
2023/11/28 23:10:15;;;;;;;9.82;1.38;;;;;;;19.56;97.44;100974.69;10597600;28;20143;-81
2023/11/28 23:15:39;;;;;;;8.52;1.63;;;;;;;19.42;96.67;100969.56;10586117;28;20043;-80
2023/11/28 23:21:02;;;;;;;8.52;1.60;;;;;;;19.28;97.92;100971.59;10589093;27;20544;-81
2023/11/28 23:26:24;;;;;;;9.85;1.02;;;;;;;19.31;98.49;100967.97;10556892;27;20056;-80
2023/11/28 23:31:50;;;;;;;8.88;1.38;;;;;;;19.39;98.40;100972.28;10571732;27;20048;-81
2023/11/28 23:37:12;;;;;;;11.38;1.80;;;;;;;19.40;97.85;100970.50;10561113;28;20051;-81
2023/11/28 23:42:35;;;;;;;9.98;1.52;;;;;;;19.29;97.71;100978.72;10579051;27;20097;-81
2023/11/28 23:47:59;;;;;;;9.85;1.40;;;;;;;19.23;99.55;100970.75;10586826;27;20147;-81
2023/11/28 23:53:21;;;;;;;10.23;1.55;;;;;;;19.21;100.00;100964.56;10583895;27;20039;-80
2023/11/28 23:58:43;;;;;;;8.25;1.80;;;;;;;19.20;100.00;100952.09;10579223;27;20051;-81
